createdAt,value
2023-10-08T00:01:56.998Z,73.17
2023-10-08T00:04:26.636Z,70.84
2023-10-08T00:06:55.990Z,70.38
2023-10-08T00:09:24.988Z,69.89
2023-10-08T00:11:56.600Z,72.36
2023-10-08T00:14:25.861Z,73.34
2023-10-08T00:16:55.351Z,73.07
2023-10-08T00:19:25.829Z,74.25
2023-10-08T00:21:54.810Z,76.49
2023-10-08T00:24:28.491Z,75.52
2023-10-08T00:26:57.538Z,75.86
2023-10-08T00:29:26.797Z,75.43
2023-10-08T00:31:58.453Z,75.13
2023-10-08T00:34:28.727Z,74.26
2023-10-08T00:36:59.313Z,75.48
2023-10-08T00:39:30.761Z,76.02
2023-10-08T00:42:01.064Z,75.56
2023-10-08T00:44:31.102Z,75.78
2023-10-08T00:47:02.841Z,74.50
2023-10-08T00:49:44.893Z,74.04
2023-10-08T00:52:16.052Z,73.41
2023-10-08T00:55:06.268Z,73.47
2023-10-08T00:57:43.543Z,72.05
2023-10-08T01:00:19.275Z,72.99
2023-10-08T01:02:50.754Z,74.75
2023-10-08T01:05:24.913Z,76.00
2023-10-08T01:07:57.020Z,76.59
2023-10-08T01:10:26.478Z,76.90
2023-10-08T01:12:55.383Z,75.21
2023-10-08T01:15:30.743Z,74.12
2023-10-08T01:18:02.931Z,74.33
2023-10-08T01:20:35.890Z,75.07
2023-10-08T01:23:10.955Z,74.14
2023-10-08T01:25:41.952Z,74.34
2023-10-08T01:28:16.035Z,73.78
2023-10-08T01:30:48.272Z,70.82
2023-10-08T01:33:22.433Z,71.62
2023-10-08T01:35:51.469Z,74.56
2023-10-08T01:38:25.095Z,72.91
2023-10-08T01:40:54.538Z,75.80
2023-10-08T01:43:23.985Z,80.07
2023-10-08T01:45:53.718Z,80.18
2023-10-08T01:48:29.703Z,78.37
2023-10-08T01:51:04.389Z,79.56
2023-10-08T01:53:33.492Z,78.72
2023-10-08T01:56:02.867Z,80.65
2023-10-08T01:58:32.194Z,76.57
2023-10-08T02:01:01.757Z,75.47
2023-10-08T02:03:31.035Z,74.98
2023-10-08T02:06:01.237Z,74.56
2023-10-08T02:08:33.210Z,75.97
2023-10-08T02:11:03.852Z,75.29
2023-10-08T02:13:36.008Z,79.13
2023-10-08T02:16:05.400Z,78.54
2023-10-08T02:18:34.582Z,80.72
2023-10-08T02:21:04.078Z,79.83
2023-10-08T02:23:33.043Z,77.60
2023-10-08T02:26:02.264Z,78.11
2023-10-08T02:28:31.478Z,80.12
2023-10-08T02:31:00.738Z,80.81
2023-10-08T02:33:31.832Z,76.48
2023-10-08T02:36:02.415Z,79.92
2023-10-08T02:38:39.096Z,81.19
2023-10-08T02:41:08.313Z,83.09
2023-10-08T02:43:43.590Z,83.50
2023-10-08T02:46:16.775Z,84.00
2023-10-08T02:48:46.006Z,84.97
2023-10-08T02:51:16.015Z,83.66
2023-10-08T02:53:45.630Z,81.01
2023-10-08T02:56:14.809Z,82.48
2023-10-08T02:58:48.913Z,84.10
2023-10-08T03:01:18.094Z,84.80
2023-10-08T03:03:48.225Z,83.86
2023-10-08T03:06:16.305Z,84.35
2023-10-08T03:08:45.265Z,83.49
2023-10-08T03:11:20.315Z,81.89
2023-10-08T03:13:53.173Z,86.30
2023-10-08T03:16:29.427Z,83.57
2023-10-08T03:18:58.748Z,85.34
2023-10-08T03:21:39.869Z,85.09
2023-10-08T03:24:31.067Z,86.59
2023-10-08T03:27:19.499Z,88.93
2023-10-08T03:29:48.864Z,90.53
2023-10-08T03:32:18.360Z,89.81
2023-10-08T03:34:49.961Z,88.04
2023-10-08T03:37:30.759Z,88.55
2023-10-08T03:40:08.818Z,85.13
2023-10-08T03:42:42.373Z,83.41
2023-10-08T03:45:12.849Z,85.31
2023-10-08T03:47:48.222Z,83.63
2023-10-08T03:50:19.231Z,86.78
2023-10-08T03:52:50.088Z,85.06
2023-10-08T03:55:19.605Z,85.16
2023-10-08T03:57:58.492Z,84.58
2023-10-08T04:00:32.848Z,82.45
2023-10-08T04:03:02.624Z,86.28
2023-10-08T04:05:45.840Z,85.18
2023-10-08T04:08:18.932Z,85.98
2023-10-08T04:10:48.214Z,86.97
2023-10-08T04:13:17.766Z,81.88
2023-10-08T04:15:47.450Z,84.56
2023-10-08T04:18:16.709Z,86.50
2023-10-08T04:21:01.989Z,85.35
2023-10-08T04:23:31.747Z,84.00
2023-10-08T04:26:01.340Z,84.47
2023-10-08T04:28:36.049Z,84.36
2023-10-08T04:31:15.992Z,88.20
2023-10-08T04:33:46.805Z,88.27
2023-10-08T04:36:19.504Z,91.30
2023-10-08T04:38:56.081Z,90.53
2023-10-08T04:41:29.524Z,88.41
2023-10-08T04:43:58.529Z,86.64
2023-10-08T04:46:39.797Z,85.71
2023-10-08T04:49:19.022Z,85.96
2023-10-08T04:51:50.379Z,84.67
2023-10-08T04:54:19.662Z,84.49
2023-10-08T04:56:50.550Z,84.10
2023-10-08T04:59:23.584Z,81.33
2023-10-08T05:02:11.192Z,81.91
2023-10-08T05:04:57.206Z,82.70
2023-10-08T05:07:30.008Z,83.70
2023-10-08T05:10:05.159Z,82.64
2023-10-08T05:12:34.672Z,84.68
2023-10-08T05:15:15.876Z,84.17
2023-10-08T05:17:52.503Z,82.45
2023-10-08T05:20:41.423Z,85.62
2023-10-08T05:23:30.678Z,85.38
2023-10-08T05:26:20.471Z,84.76
2023-10-08T05:29:24.565Z,86.15
2023-10-08T05:32:13.703Z,84.54
2023-10-08T05:34:57.724Z,85.78
2023-10-08T05:37:33.435Z,84.73
2023-10-08T05:40:14.788Z,83.41
2023-10-08T05:43:02.360Z,82.16
2023-10-08T05:45:35.859Z,84.07
2023-10-08T05:48:14.911Z,83.41
2023-10-08T05:50:56.650Z,85.07
2023-10-08T05:53:45.183Z,84.12
2023-10-08T05:56:30.426Z,87.79
2023-10-08T05:59:16.451Z,85.86
2023-10-08T06:01:47.677Z,87.58
2023-10-08T06:04:42.816Z,87.63
2023-10-08T06:07:22.035Z,86.99
2023-10-08T06:10:15.082Z,87.64
2023-10-08T06:12:51.438Z,87.58
2023-10-08T06:15:38.868Z,88.58
2023-10-08T06:18:09.472Z,90.21
2023-10-08T06:20:40.866Z,91.42
2023-10-08T06:23:15.356Z,93.20
2023-10-08T06:25:47.463Z,93.89
2023-10-08T06:28:20.992Z,94.30
2023-10-08T06:30:54.923Z,94.05
2023-10-08T06:33:43.484Z,93.88
2023-10-08T06:36:13.423Z,94.78
2023-10-08T06:38:43.594Z,92.57
2023-10-08T06:41:13.931Z,94.63
2023-10-08T06:43:46.682Z,91.18
2023-10-08T06:46:16.135Z,94.84
2023-10-08T06:48:45.995Z,90.63
2023-10-08T06:51:15.417Z,91.63
2023-10-08T06:53:49.438Z,91.20
2023-10-08T06:56:21.180Z,89.98
2023-10-08T06:58:53.760Z,87.76
2023-10-08T07:01:22.750Z,87.64
2023-10-08T07:04:05.062Z,89.05
2023-10-08T07:06:38.819Z,90.94
2023-10-08T07:09:38.127Z,88.50
2023-10-08T07:12:15.090Z,87.58
2023-10-08T07:14:44.991Z,87.00
2023-10-08T07:17:21.833Z,86.35
2023-10-08T07:19:52.489Z,84.61
2023-10-08T07:22:24.970Z,86.71
2023-10-08T07:24:54.706Z,88.86
2023-10-08T07:27:26.080Z,87.14
2023-10-08T07:29:58.036Z,86.98
2023-10-08T07:32:28.391Z,86.35
2023-10-08T07:35:13.580Z,89.28
2023-10-08T07:37:44.251Z,89.14
2023-10-08T07:40:14.412Z,90.48
2023-10-08T07:42:45.154Z,90.93
2023-10-08T07:45:19.123Z,94.47
2023-10-08T07:47:49.455Z,89.79
2023-10-08T07:50:20.133Z,90.64
2023-10-08T07:52:49.148Z,92.00
2023-10-08T07:55:19.530Z,90.99
2023-10-08T07:57:49.459Z,93.18
2023-10-08T08:00:24.961Z,89.11
2023-10-08T08:02:56.650Z,84.22
2023-10-08T08:05:26.807Z,84.70
2023-10-08T08:07:58.024Z,84.85
2023-10-08T08:10:27.374Z,83.13
2023-10-08T08:12:58.351Z,81.17
2023-10-08T08:15:30.231Z,79.41
2023-10-08T08:17:59.654Z,83.36
2023-10-08T08:20:40.376Z,79.41
2023-10-08T08:23:09.847Z,80.18
2023-10-08T08:25:58.809Z,77.36
2023-10-08T08:28:30.254Z,78.00
2023-10-08T08:31:06.472Z,80.45
2023-10-08T08:33:58.721Z,77.33
2023-10-08T08:36:29.331Z,78.29
2023-10-08T08:38:59.389Z,78.98
2023-10-08T08:41:29.190Z,75.19
2023-10-08T08:43:59.907Z,75.28
2023-10-08T08:46:32.975Z,73.84
2023-10-08T08:49:09.510Z,72.73
2023-10-08T08:51:39.364Z,74.14
2023-10-08T08:54:08.679Z,74.99
2023-10-08T08:56:44.955Z,75.48
2023-10-08T08:59:14.843Z,73.04
2023-10-08T09:01:45.498Z,71.75
2023-10-08T09:04:18.121Z,74.17
2023-10-08T09:06:47.471Z,77.39
2023-10-08T09:09:23.880Z,75.49
2023-10-08T09:11:54.146Z,76.21
2023-10-08T09:14:26.544Z,66.80
2023-10-08T09:16:55.570Z,70.44
2023-10-08T09:19:26.366Z,70.15
2023-10-08T09:22:13.256Z,67.67
2023-10-08T09:24:44.068Z,66.31
2023-10-08T09:27:17.071Z,64.53
2023-10-08T09:29:47.700Z,67.41
2023-10-08T09:32:25.193Z,67.85
2023-10-08T09:34:54.960Z,73.61
2023-10-08T09:37:23.928Z,67.44
2023-10-08T09:39:54.950Z,67.02
2023-10-08T09:42:25.850Z,69.46
2023-10-08T09:44:55.756Z,69.99
2023-10-08T09:47:28.296Z,68.63
2023-10-08T09:50:09.246Z,67.23
2023-10-08T09:52:52.193Z,64.90
2023-10-08T09:55:21.560Z,63.45
2023-10-08T09:57:56.757Z,62.68
2023-10-08T10:00:31.897Z,63.12
2023-10-08T10:03:04.785Z,61.18
2023-10-08T10:05:37.163Z,59.82
2023-10-08T10:08:06.774Z,64.29
2023-10-08T10:10:39.470Z,64.25
2023-10-08T10:13:11.613Z,61.76
2023-10-08T10:15:47.160Z,63.23
2023-10-08T10:18:22.876Z,62.25
2023-10-08T10:20:57.449Z,64.69
2023-10-08T10:23:44.512Z,63.17
2023-10-08T10:26:24.399Z,61.54
2023-10-08T10:29:08.840Z,58.56
2023-10-08T10:31:47.966Z,60.27
2023-10-08T10:34:19.482Z,68.65
2023-10-08T10:36:55.562Z,60.70
2023-10-08T10:39:28.912Z,64.86
2023-10-08T10:42:02.939Z,62.37
2023-10-08T10:44:37.840Z,61.65
2023-10-08T10:47:18.859Z,66.19
2023-10-08T10:49:56.490Z,59.01
2023-10-08T10:52:46.098Z,60.52
2023-10-08T10:55:15.919Z,58.54
2023-10-08T10:58:04.976Z,56.75
2023-10-08T11:00:34.303Z,57.65
2023-10-08T11:03:05.769Z,59.66
2023-10-08T11:05:38.924Z,58.04
2023-10-08T11:08:10.121Z,59.68
2023-10-08T11:10:41.423Z,61.03
2023-10-08T11:13:16.830Z,61.02
2023-10-08T11:15:51.011Z,53.70
2023-10-08T11:18:25.142Z,51.59
2023-10-08T11:21:03.090Z,55.89
2023-10-08T11:23:38.736Z,56.98
2023-10-08T11:26:08.258Z,49.91
2023-10-08T11:28:43.906Z,51.06
2023-10-08T11:31:17.128Z,57.55
2023-10-08T11:33:57.071Z,54.73
2023-10-08T11:36:38.602Z,55.51
2023-10-08T11:39:14.835Z,50.56
2023-10-08T11:41:51.466Z,53.14
2023-10-08T11:44:21.040Z,56.25
2023-10-08T11:46:53.203Z,59.18
2023-10-08T11:49:26.980Z,57.60
2023-10-08T11:51:58.850Z,53.22
2023-10-08T11:54:28.874Z,51.07
2023-10-08T11:56:58.282Z,51.79
2023-10-08T11:59:27.277Z,51.18
2023-10-08T12:01:57.866Z,50.78
2023-10-08T12:04:29.853Z,59.08
2023-10-08T12:07:03.800Z,51.25
2023-10-08T12:09:32.731Z,52.98
2023-10-08T12:12:01.935Z,52.95
2023-10-08T12:14:31.865Z,54.62
2023-10-08T12:17:01.707Z,52.46
2023-10-08T12:19:33.617Z,52.79
2023-10-08T12:22:04.001Z,51.80
2023-10-08T12:24:32.967Z,53.21
2023-10-08T12:27:04.468Z,62.44
2023-10-08T12:29:34.477Z,53.93
2023-10-08T12:32:05.273Z,51.16
2023-10-08T12:34:36.583Z,59.48
2023-10-08T12:37:08.816Z,53.66
2023-10-08T12:39:54.203Z,55.70
2023-10-08T12:42:23.468Z,56.15
2023-10-08T12:44:52.752Z,56.05
2023-10-08T12:47:21.938Z,56.02
2023-10-08T12:49:52.773Z,56.08
2023-10-08T12:52:21.919Z,56.46
2023-10-08T12:54:54.345Z,57.67
2023-10-08T12:57:30.379Z,58.38
2023-10-08T13:00:00.730Z,57.90
2023-10-08T13:02:30.090Z,64.72
2023-10-08T13:05:01.101Z,62.96
2023-10-08T13:07:34.129Z,59.31
2023-10-08T13:10:03.416Z,60.36
2023-10-08T13:12:32.445Z,62.01
2023-10-08T13:15:07.652Z,61.28
2023-10-08T13:17:37.142Z,61.39
2023-10-08T13:20:12.967Z,61.38
2023-10-08T13:22:42.143Z,61.16
2023-10-08T13:25:13.301Z,67.13
2023-10-08T13:27:42.286Z,67.28
2023-10-08T13:30:11.958Z,60.65
2023-10-08T13:32:41.501Z,61.36
2023-10-08T13:35:12.565Z,63.67
2023-10-08T13:37:41.806Z,62.49
2023-10-08T13:40:13.604Z,64.50
2023-10-08T13:42:44.084Z,63.06
2023-10-08T13:45:27.427Z,63.39
2023-10-08T13:47:58.044Z,62.39
2023-10-08T13:50:27.279Z,63.09
2023-10-08T13:52:56.430Z,64.08
2023-10-08T13:55:26.580Z,67.24
2023-10-08T13:57:55.789Z,67.87
2023-10-08T14:00:27.728Z,65.71
2023-10-08T14:02:58.482Z,65.15
2023-10-08T14:05:27.674Z,67.27
2023-10-08T14:07:57.955Z,63.79
2023-10-08T14:10:31.004Z,60.89
2023-10-08T14:13:02.903Z,62.66
2023-10-08T14:15:34.195Z,69.09
2023-10-08T14:18:06.595Z,64.51
2023-10-08T14:20:35.733Z,64.42
2023-10-08T14:23:05.537Z,64.08
2023-10-08T14:25:34.878Z,63.34
2023-10-08T14:28:07.904Z,65.08
2023-10-08T14:30:42.534Z,64.26
2023-10-08T14:33:14.796Z,63.91
2023-10-08T14:36:02.649Z,64.30
2023-10-08T14:38:50.173Z,64.39
2023-10-08T14:41:37.944Z,63.47
2023-10-08T14:44:08.023Z,63.85
2023-10-08T14:46:38.181Z,64.19
2023-10-08T14:49:12.134Z,63.96
2023-10-08T14:51:41.835Z,63.96
2023-10-08T14:54:11.216Z,64.41
2023-10-08T14:56:40.653Z,63.90
2023-10-08T14:59:10.228Z,66.85
2023-10-08T15:01:40.480Z,68.94
2023-10-08T15:04:12.850Z,68.65
2023-10-08T15:06:42.138Z,66.88
2023-10-08T15:09:19.907Z,69.39
2023-10-08T15:11:49.771Z,64.83
2023-10-08T15:14:20.358Z,66.42
2023-10-08T15:16:53.466Z,70.10
2023-10-08T15:19:23.582Z,67.70
2023-10-08T15:21:53.275Z,68.73
2023-10-08T15:24:23.699Z,68.64
2023-10-08T15:26:56.499Z,71.87
2023-10-08T15:29:27.606Z,73.36
2023-10-08T15:31:58.230Z,68.97
2023-10-08T15:34:37.116Z,68.61
2023-10-08T15:37:08.750Z,68.13
2023-10-08T15:39:38.077Z,72.81
2023-10-08T15:42:07.370Z,67.97
2023-10-08T15:44:36.564Z,68.98
2023-10-08T15:47:05.534Z,70.51
2023-10-08T15:49:34.604Z,71.39
2023-10-08T15:52:03.911Z,71.34
2023-10-08T15:54:34.477Z,69.79
2023-10-08T15:57:05.897Z,70.52
2023-10-08T15:59:35.036Z,71.02
2023-10-08T16:02:04.762Z,71.81
2023-10-08T16:04:33.705Z,71.85
2023-10-08T16:07:02.766Z,73.48
2023-10-08T16:09:31.972Z,73.23
2023-10-08T16:12:01.253Z,72.70
2023-10-08T16:14:30.583Z,69.99
2023-10-08T16:16:59.805Z,71.58
2023-10-08T16:19:30.231Z,71.94
2023-10-08T16:21:59.269Z,72.21
2023-10-08T16:24:28.537Z,72.00
2023-10-08T16:26:58.511Z,73.95
2023-10-08T16:29:27.780Z,75.76
2023-10-08T16:31:57.188Z,71.05
2023-10-08T16:34:28.455Z,72.09
2023-10-08T16:36:57.631Z,75.05
2023-10-08T16:39:26.963Z,73.02
2023-10-08T16:41:56.418Z,73.93
2023-10-08T16:44:25.423Z,73.46
2023-10-08T16:46:54.685Z,75.78
2023-10-08T16:49:27.827Z,77.92
2023-10-08T16:51:57.466Z,77.13
2023-10-08T16:54:26.471Z,76.64
2023-10-08T16:56:55.441Z,77.80
2023-10-08T16:59:25.843Z,75.31
2023-10-08T17:01:55.084Z,76.46
2023-10-08T17:04:24.314Z,76.53
2023-10-08T17:06:53.335Z,79.49
2023-10-08T17:09:23.525Z,78.63
2023-10-08T17:11:53.833Z,78.54
2023-10-08T17:14:23.973Z,78.29
2023-10-08T17:16:53.154Z,78.32
2023-10-08T17:19:25.053Z,79.24
2023-10-08T17:21:54.341Z,80.60
2023-10-08T17:24:23.618Z,77.25
2023-10-08T17:27:04.025Z,81.12
2023-10-08T17:29:37.325Z,80.59
2023-10-08T17:32:07.873Z,81.05
2023-10-08T17:34:38.011Z,77.33
2023-10-08T17:37:07.538Z,82.44
2023-10-08T17:39:36.561Z,77.11
2023-10-08T17:42:06.248Z,77.65
2023-10-08T17:44:35.580Z,79.83
2023-10-08T17:47:05.625Z,79.75
2023-10-08T17:49:38.309Z,79.00
2023-10-08T17:52:07.614Z,79.83
2023-10-08T17:54:38.529Z,79.61
2023-10-08T17:57:08.943Z,78.77
2023-10-08T17:59:39.289Z,77.42
2023-10-08T18:02:09.058Z,78.33
2023-10-08T18:04:39.439Z,77.58
2023-10-08T18:07:08.692Z,82.99
2023-10-08T18:09:37.655Z,80.50
2023-10-08T18:12:09.492Z,80.06
2023-10-08T18:14:38.520Z,80.18
2023-10-08T18:17:07.939Z,80.32
2023-10-08T18:19:37.713Z,84.22
2023-10-08T18:22:07.248Z,83.58
2023-10-08T18:24:37.684Z,78.56
2023-10-08T18:27:11.150Z,80.67
2023-10-08T18:29:40.219Z,81.87
2023-10-08T18:32:09.168Z,82.42
2023-10-08T18:34:38.321Z,80.79
2023-10-08T18:37:07.502Z,79.34
2023-10-08T18:39:36.746Z,78.93
2023-10-08T18:42:09.470Z,80.05
2023-10-08T18:44:38.684Z,83.67
2023-10-08T18:47:08.056Z,80.42
2023-10-08T18:49:38.187Z,80.25
2023-10-08T18:52:07.476Z,79.87
2023-10-08T18:54:37.957Z,80.69
2023-10-08T18:57:07.559Z,80.40
2023-10-08T18:59:36.641Z,80.64
2023-10-08T19:02:06.932Z,81.16
2023-10-08T19:04:36.082Z,80.98
2023-10-08T19:07:05.480Z,80.62
2023-10-08T19:09:34.481Z,80.73
2023-10-08T19:12:07.491Z,80.87
2023-10-08T19:14:36.961Z,83.50
2023-10-08T19:17:06.980Z,80.94
2023-10-08T19:19:37.442Z,80.22
2023-10-08T19:22:06.466Z,84.87
2023-10-08T19:24:35.822Z,80.30
2023-10-08T19:27:06.748Z,81.03
2023-10-08T19:29:38.137Z,81.07
2023-10-08T19:32:08.090Z,82.85
2023-10-08T19:34:39.447Z,80.33
2023-10-08T19:37:09.168Z,80.34
2023-10-08T19:39:38.414Z,80.46
2023-10-08T19:42:09.083Z,81.12
2023-10-08T19:44:38.229Z,84.42
2023-10-08T19:47:10.660Z,80.51
2023-10-08T19:49:39.617Z,79.81
2023-10-08T19:52:10.232Z,82.80
2023-10-08T19:54:39.571Z,80.13
2023-10-08T19:57:10.934Z,79.74
2023-10-08T19:59:40.270Z,81.44
2023-10-08T20:02:09.569Z,80.56
2023-10-08T20:04:40.365Z,82.01
2023-10-08T20:07:09.618Z,80.21
2023-10-08T20:09:38.639Z,83.36
2023-10-08T20:12:09.036Z,78.63
2023-10-08T20:14:38.006Z,80.09
2023-10-08T20:17:09.955Z,80.03
2023-10-08T20:19:38.956Z,80.60
2023-10-08T20:22:08.167Z,80.02
2023-10-08T20:24:39.419Z,79.96
2023-10-08T20:27:09.525Z,81.83
2023-10-08T20:29:39.539Z,82.42
2023-10-08T20:32:08.958Z,84.49
2023-10-08T20:34:37.922Z,83.44
2023-10-08T20:37:07.068Z,83.60
2023-10-08T20:39:40.636Z,86.27
2023-10-08T20:42:09.989Z,80.70
2023-10-08T20:44:39.722Z,87.63
2023-10-08T20:47:09.141Z,84.00
2023-10-08T20:49:38.869Z,84.92
2023-10-08T20:52:09.552Z,84.23
2023-10-08T20:54:39.517Z,83.87
2023-10-08T20:57:08.849Z,86.28
2023-10-08T20:59:38.209Z,86.95
2023-10-08T21:02:11.598Z,83.83
2023-10-08T21:04:40.850Z,88.27
2023-10-08T21:07:09.825Z,84.21
2023-10-08T21:09:39.994Z,86.81
2023-10-08T21:12:09.348Z,86.06
2023-10-08T21:14:38.547Z,88.66
2023-10-08T21:17:07.644Z,87.64
2023-10-08T21:19:36.795Z,90.17
2023-10-08T21:22:05.941Z,86.85
2023-10-08T21:24:36.504Z,87.50
2023-10-08T21:27:05.743Z,89.27
2023-10-08T21:29:34.950Z,89.52
2023-10-08T21:32:04.244Z,93.65
2023-10-08T21:34:33.437Z,88.29
2023-10-08T21:37:05.635Z,90.43
2023-10-08T21:39:35.222Z,90.32
2023-10-08T21:42:04.232Z,89.81
2023-10-08T21:44:33.545Z,90.37
2023-10-08T21:47:02.762Z,91.82
2023-10-08T21:49:32.340Z,91.14
2023-10-08T21:52:01.802Z,91.02
2023-10-08T21:54:31.130Z,91.52
2023-10-08T21:57:02.866Z,89.20
2023-10-08T21:59:32.291Z,86.48
2023-10-08T22:02:01.267Z,89.93
2023-10-08T22:04:31.640Z,87.69
2023-10-08T22:07:06.714Z,85.88
2023-10-08T22:09:37.786Z,85.18
2023-10-08T22:12:07.697Z,90.43
2023-10-08T22:14:36.894Z,90.15
2023-10-08T22:17:13.589Z,86.85
2023-10-08T22:19:45.407Z,86.97
2023-10-08T22:22:18.943Z,84.57
2023-10-08T22:24:49.528Z,86.01
2023-10-08T22:27:34.866Z,83.44
2023-10-08T22:30:06.669Z,87.79
2023-10-08T22:32:37.940Z,88.35
2023-10-08T22:35:15.546Z,88.60
2023-10-08T22:38:02.982Z,88.73
2023-10-08T22:40:51.320Z,90.00
2023-10-08T22:43:21.058Z,89.93
2023-10-08T22:45:54.269Z,88.21
2023-10-08T22:48:45.098Z,90.21
2023-10-08T22:51:26.155Z,90.96
2023-10-08T22:53:57.735Z,89.16
2023-10-08T22:56:27.161Z,89.53
2023-10-08T22:58:57.066Z,87.99
2023-10-08T23:01:28.958Z,86.01
2023-10-08T23:04:03.522Z,88.45
2023-10-08T23:06:32.672Z,87.59
2023-10-08T23:09:00.905Z,87.90
2023-10-08T23:11:30.151Z,88.99
2023-10-08T23:14:00.754Z,90.91
2023-10-08T23:16:33.844Z,92.18
2023-10-08T23:19:03.135Z,93.72
2023-10-08T23:21:32.326Z,92.57
2023-10-08T23:24:03.487Z,93.00
2023-10-08T23:26:32.396Z,91.41
2023-10-08T23:29:01.865Z,93.04
2023-10-08T23:31:31.907Z,94.69
2023-10-08T23:34:02.353Z,93.65
2023-10-08T23:36:40.734Z,92.72
2023-10-08T23:39:16.446Z,89.38
2023-10-08T23:41:53.344Z,89.55
2023-10-08T23:44:32.507Z,89.07
2023-10-08T23:47:10.836Z,91.31
2023-10-08T23:49:48.845Z,90.54
2023-10-08T23:52:25.009Z,91.01
2023-10-08T23:55:00.888Z,89.95
2023-10-08T23:57:49.354Z,89.53
